sensor_id;sensor_type;location;lat;lon;timestamp;temperature;humidity
10296;DHT22;5193;51.032;6.356;2023-02-15T00:01:15;2.00;99.90
10296;DHT22;5193;51.032;6.356;2023-02-15T00:03:41;1.90;99.90
10296;DHT22;5193;51.032;6.356;2023-02-15T00:06:06;1.90;99.90
10296;DHT22;5193;51.032;6.356;2023-02-15T00:08:32;1.90;99.90
10296;DHT22;5193;51.032;6.356;2023-02-15T00:11:13;1.90;99.90
10296;DHT22;5193;51.032;6.356;2023-02-15T00:13:39;1.80;99.90
10296;DHT22;5193;51.032;6.356;2023-02-15T00:16:10;1.80;99.90
10296;DHT22;5193;51.032;6.356;2023-02-15T00:18:36;1.80;99.90
10296;DHT22;5193;51.032;6.356;2023-02-15T00:21:07;1.80;99.90
10296;DHT22;5193;51.032;6.356;2023-02-15T00:23:32;1.70;99.90
10296;DHT22;5193;51.032;6.356;2023-02-15T00:26:09;1.70;99.90
10296;DHT22;5193;51.032;6.356;2023-02-15T00:28:35;1.60;99.90
10296;DHT22;5193;51.032;6.356;2023-02-15T00:31:09;1.60;99.90
10296;DHT22;5193;51.032;6.356;2023-02-15T00:33:35;1.60;99.90
10296;DHT22;5193;51.032;6.356;2023-02-15T00:36:04;1.50;99.90
10296;DHT22;5193;51.032;6.356;2023-02-15T00:38:30;1.60;99.90
10296;DHT22;5193;51.032;6.356;2023-02-15T00:40:58;1.60;99.90
10296;DHT22;5193;51.032;6.356;2023-02-15T00:43:25;1.50;99.90
10296;DHT22;5193;51.032;6.356;2023-02-15T00:45:51;1.50;99.90
10296;DHT22;5193;51.032;6.356;2023-02-15T00:48:17;1.50;99.90
10296;DHT22;5193;51.032;6.356;2023-02-15T00:50:51;1.50;99.90
10296;DHT22;5193;51.032;6.356;2023-02-15T00:53:20;1.50;99.90
10296;DHT22;5193;51.032;6.356;2023-02-15T00:55:46;1.40;99.90
10296;DHT22;5193;51.032;6.356;2023-02-15T00:58:25;1.40;99.90
10296;DHT22;5193;51.032;6.356;2023-02-15T01:00:51;1.40;99.90
10296;DHT22;5193;51.032;6.356;2023-02-15T01:03:23;1.30;99.90
10296;DHT22;5193;51.032;6.356;2023-02-15T01:05:54;1.30;99.90
10296;DHT22;5193;51.032;6.356;2023-02-15T01:08:20;1.30;99.90
10296;DHT22;5193;51.032;6.356;2023-02-15T01:10:45;1.30;99.90
10296;DHT22;5193;51.032;6.356;2023-02-15T01:13:14;1.20;99.90
10296;DHT22;5193;51.032;6.356;2023-02-15T01:15:40;1.30;99.90
10296;DHT22;5193;51.032;6.356;2023-02-15T01:18:05;1.30;99.90
10296;DHT22;5193;51.032;6.356;2023-02-15T01:20:35;1.30;99.90
10296;DHT22;5193;51.032;6.356;2023-02-15T01:23:02;1.30;99.90
10296;DHT22;5193;51.032;6.356;2023-02-15T01:25:28;1.20;99.90
10296;DHT22;5193;51.032;6.356;2023-02-15T01:27:53;1.20;99.90
10296;DHT22;5193;51.032;6.356;2023-02-15T01:30:19;1.20;99.90
10296;DHT22;5193;51.032;6.356;2023-02-15T01:32:45;1.20;99.90
10296;DHT22;5193;51.032;6.356;2023-02-15T01:35:11;1.20;99.90
10296;DHT22;5193;51.032;6.356;2023-02-15T01:37:37;1.20;99.90
10296;DHT22;5193;51.032;6.356;2023-02-15T01:40:04;1.20;99.90
10296;DHT22;5193;51.032;6.356;2023-02-15T01:42:30;1.20;99.90
10296;DHT22;5193;51.032;6.356;2023-02-15T01:45:04;1.20;99.90
10296;DHT22;5193;51.032;6.356;2023-02-15T01:47:45;1.10;99.90
10296;DHT22;5193;51.032;6.356;2023-02-15T01:50:26;1.10;99.90
10296;DHT22;5193;51.032;6.356;2023-02-15T01:55:37;1.10;99.90
10296;DHT22;5193;51.032;6.356;2023-02-15T01:58:04;1.10;99.90
10296;DHT22;5193;51.032;6.356;2023-02-15T02:00:30;1.10;99.90
10296;DHT22;5193;51.032;6.356;2023-02-15T02:02:56;1.00;99.90
10296;DHT22;5193;51.032;6.356;2023-02-15T02:05:22;1.00;99.90
10296;DHT22;5193;51.032;6.356;2023-02-15T02:07:50;1.10;99.90
10296;DHT22;5193;51.032;6.356;2023-02-15T02:10:20;1.00;99.90
10296;DHT22;5193;51.032;6.356;2023-02-15T02:12:48;1.00;99.90
10296;DHT22;5193;51.032;6.356;2023-02-15T02:15:15;1.00;99.90
10296;DHT22;5193;51.032;6.356;2023-02-15T02:23:24;1.00;99.90
10296;DHT22;5193;51.032;6.356;2023-02-15T02:37:05;0.90;99.90
10296;DHT22;5193;51.032;6.356;2023-02-15T02:42:39;0.90;99.90
10296;DHT22;5193;51.032;6.356;2023-02-15T02:48:03;0.80;99.90
10296;DHT22;5193;51.032;6.356;2023-02-15T02:50:30;0.80;99.90
10296;DHT22;5193;51.032;6.356;2023-02-15T02:52:57;0.80;99.90
10296;DHT22;5193;51.032;6.356;2023-02-15T02:55:38;0.80;99.90
10296;DHT22;5193;51.032;6.356;2023-02-15T02:58:17;0.80;99.90
10296;DHT22;5193;51.032;6.356;2023-02-15T03:00:57;0.80;99.90
10296;DHT22;5193;51.032;6.356;2023-02-15T03:06:04;0.80;99.90
10296;DHT22;5193;51.032;6.356;2023-02-15T03:08:36;0.70;99.90
10296;DHT22;5193;51.032;6.356;2023-02-15T03:11:05;0.70;99.90
10296;DHT22;5193;51.032;6.356;2023-02-15T03:13:32;0.70;99.90
10296;DHT22;5193;51.032;6.356;2023-02-15T03:15:58;0.70;99.90
10296;DHT22;5193;51.032;6.356;2023-02-15T03:18:48;0.70;99.90
10296;DHT22;5193;51.032;6.356;2023-02-15T03:21:23;0.70;99.90
10296;DHT22;5193;51.032;6.356;2023-02-15T03:23:56;0.60;99.90
10296;DHT22;5193;51.032;6.356;2023-02-15T03:26:24;0.60;99.90
10296;DHT22;5193;51.032;6.356;2023-02-15T03:28:53;0.60;99.90
10296;DHT22;5193;51.032;6.356;2023-02-15T03:31:21;0.60;99.90
10296;DHT22;5193;51.032;6.356;2023-02-15T03:33:54;0.60;99.90
10296;DHT22;5193;51.032;6.356;2023-02-15T03:36:26;0.60;99.90
10296;DHT22;5193;51.032;6.356;2023-02-15T03:39:22;0.60;99.90
10296;DHT22;5193;51.032;6.356;2023-02-15T03:42:29;0.60;99.90
10296;DHT22;5193;51.032;6.356;2023-02-15T03:45:05;0.50;99.90
10296;DHT22;5193;51.032;6.356;2023-02-15T03:47:38;0.60;99.90
10296;DHT22;5193;51.032;6.356;2023-02-15T03:50:21;0.50;99.90
10296;DHT22;5193;51.032;6.356;2023-02-15T03:53:10;0.50;99.90
10296;DHT22;5193;51.032;6.356;2023-02-15T03:55:37;0.60;99.90
10296;DHT22;5193;51.032;6.356;2023-02-15T03:58:03;0.50;99.90
10296;DHT22;5193;51.032;6.356;2023-02-15T04:01:18;0.50;99.90
10296;DHT22;5193;51.032;6.356;2023-02-15T04:04:07;0.40;99.90
10296;DHT22;5193;51.032;6.356;2023-02-15T04:06:34;0.40;99.90
10296;DHT22;5193;51.032;6.356;2023-02-15T04:09:00;0.30;99.90
10296;DHT22;5193;51.032;6.356;2023-02-15T04:11:43;0.40;99.90
10296;DHT22;5193;51.032;6.356;2023-02-15T04:14:10;0.30;99.90
10296;DHT22;5193;51.032;6.356;2023-02-15T04:16:54;0.30;99.90
10296;DHT22;5193;51.032;6.356;2023-02-15T04:19:20;0.30;99.90
10296;DHT22;5193;51.032;6.356;2023-02-15T04:22:04;0.30;99.90
10296;DHT22;5193;51.032;6.356;2023-02-15T04:24:48;0.20;99.90
10296;DHT22;5193;51.032;6.356;2023-02-15T04:27:32;0.20;99.90
10296;DHT22;5193;51.032;6.356;2023-02-15T04:29:58;0.20;99.90
10296;DHT22;5193;51.032;6.356;2023-02-15T04:32:24;0.20;99.90
10296;DHT22;5193;51.032;6.356;2023-02-15T04:34:49;0.20;99.90
10296;DHT22;5193;51.032;6.356;2023-02-15T04:37:15;0.20;99.90
10296;DHT22;5193;51.032;6.356;2023-02-15T04:39:40;0.20;99.90
10296;DHT22;5193;51.032;6.356;2023-02-15T04:42:06;1.00;99.90
10296;DHT22;5193;51.032;6.356;2023-02-15T04:44:32;0.20;99.90
10296;DHT22;5193;51.032;6.356;2023-02-15T04:46:58;0.20;99.90
10296;DHT22;5193;51.032;6.356;2023-02-15T04:49:23;0.20;99.90
10296;DHT22;5193;51.032;6.356;2023-02-15T04:51:49;0.20;99.90
10296;DHT22;5193;51.032;6.356;2023-02-15T04:54:14;0.20;99.90
10296;DHT22;5193;51.032;6.356;2023-02-15T04:59:10;0.20;99.90
10296;DHT22;5193;51.032;6.356;2023-02-15T05:01:35;0.20;99.90
10296;DHT22;5193;51.032;6.356;2023-02-15T05:04:01;0.20;99.90
10296;DHT22;5193;51.032;6.356;2023-02-15T05:06:28;0.20;99.90
10296;DHT22;5193;51.032;6.356;2023-02-15T05:08:54;0.20;99.90
10296;DHT22;5193;51.032;6.356;2023-02-15T05:11:19;0.20;99.90
10296;DHT22;5193;51.032;6.356;2023-02-15T05:13:45;0.20;99.90
10296;DHT22;5193;51.032;6.356;2023-02-15T05:16:10;0.20;99.90
10296;DHT22;5193;51.032;6.356;2023-02-15T05:18:36;0.20;99.90
10296;DHT22;5193;51.032;6.356;2023-02-15T05:21:01;0.20;99.90
10296;DHT22;5193;51.032;6.356;2023-02-15T05:23:27;0.20;99.90
10296;DHT22;5193;51.032;6.356;2023-02-15T05:25:52;0.20;99.90
10296;DHT22;5193;51.032;6.356;2023-02-15T05:28:37;0.20;99.90
10296;DHT22;5193;51.032;6.356;2023-02-15T05:33:32;0.20;99.90
10296;DHT22;5193;51.032;6.356;2023-02-15T05:35:58;0.10;99.90
10296;DHT22;5193;51.032;6.356;2023-02-15T05:38:24;0.20;99.90
10296;DHT22;5193;51.032;6.356;2023-02-15T05:40:53;0.10;99.90
10296;DHT22;5193;51.032;6.356;2023-02-15T05:43:19;0.10;99.90
10296;DHT22;5193;51.032;6.356;2023-02-15T05:45:48;0.10;99.90
10296;DHT22;5193;51.032;6.356;2023-02-15T05:48:15;0.10;99.90
10296;DHT22;5193;51.032;6.356;2023-02-15T05:50:41;0.10;99.90
10296;DHT22;5193;51.032;6.356;2023-02-15T05:53:07;0.10;99.90
10296;DHT22;5193;51.032;6.356;2023-02-15T05:55:32;0.10;99.90
10296;DHT22;5193;51.032;6.356;2023-02-15T05:57:58;0.10;99.90
10296;DHT22;5193;51.032;6.356;2023-02-15T06:00:23;0.10;99.90
10296;DHT22;5193;51.032;6.356;2023-02-15T06:02:49;0.10;99.90
10296;DHT22;5193;51.032;6.356;2023-02-15T06:05:15;0.10;99.90
10296;DHT22;5193;51.032;6.356;2023-02-15T06:07:43;0.10;99.90
10296;DHT22;5193;51.032;6.356;2023-02-15T06:10:09;0.10;99.90
10296;DHT22;5193;51.032;6.356;2023-02-15T06:12:35;0.10;99.90
10296;DHT22;5193;51.032;6.356;2023-02-15T06:15:00;0.10;99.90
10296;DHT22;5193;51.032;6.356;2023-02-15T06:17:26;0.10;99.90
10296;DHT22;5193;51.032;6.356;2023-02-15T06:19:52;0.10;99.90
10296;DHT22;5193;51.032;6.356;2023-02-15T06:22:17;0.20;99.90
10296;DHT22;5193;51.032;6.356;2023-02-15T06:24:43;0.10;99.90
10296;DHT22;5193;51.032;6.356;2023-02-15T06:27:09;0.10;99.90
10296;DHT22;5193;51.032;6.356;2023-02-15T06:29:35;0.10;99.90
10296;DHT22;5193;51.032;6.356;2023-02-15T06:32:01;0.10;99.90
10296;DHT22;5193;51.032;6.356;2023-02-15T06:34:26;0.10;99.90
10296;DHT22;5193;51.032;6.356;2023-02-15T06:36:52;0.00;99.90
10296;DHT22;5193;51.032;6.356;2023-02-15T06:39:17;0.00;99.90
10296;DHT22;5193;51.032;6.356;2023-02-15T06:41:43;0.00;99.90
10296;DHT22;5193;51.032;6.356;2023-02-15T06:44:08;0.00;99.90
10296;DHT22;5193;51.032;6.356;2023-02-15T06:46:34;0.00;99.90
10296;DHT22;5193;51.032;6.356;2023-02-15T06:49:00;0.00;99.90
10296;DHT22;5193;51.032;6.356;2023-02-15T06:51:25;0.00;99.90
10296;DHT22;5193;51.032;6.356;2023-02-15T06:53:51;0.00;99.90
10296;DHT22;5193;51.032;6.356;2023-02-15T06:56:16;0.00;99.90
10296;DHT22;5193;51.032;6.356;2023-02-15T06:58:42;0.00;99.90
10296;DHT22;5193;51.032;6.356;2023-02-15T07:01:08;0.00;99.90
10296;DHT22;5193;51.032;6.356;2023-02-15T07:03:35;0.00;99.90
10296;DHT22;5193;51.032;6.356;2023-02-15T07:06:02;0.00;99.90
10296;DHT22;5193;51.032;6.356;2023-02-15T07:08:28;-0.10;99.90
10296;DHT22;5193;51.032;6.356;2023-02-15T07:10:55;-0.10;99.90
10296;DHT22;5193;51.032;6.356;2023-02-15T07:13:41;0.00;99.90
10296;DHT22;5193;51.032;6.356;2023-02-15T07:16:08;-0.10;99.90
10296;DHT22;5193;51.032;6.356;2023-02-15T07:18:33;-0.10;99.90
10296;DHT22;5193;51.032;6.356;2023-02-15T07:20:59;-0.10;99.90
10296;DHT22;5193;51.032;6.356;2023-02-15T07:23:24;-0.10;99.90
10296;DHT22;5193;51.032;6.356;2023-02-15T07:25:57;0.00;99.90
10296;DHT22;5193;51.032;6.356;2023-02-15T07:28:22;0.00;99.90
10296;DHT22;5193;51.032;6.356;2023-02-15T07:30:48;0.00;99.90
10296;DHT22;5193;51.032;6.356;2023-02-15T07:33:13;0.10;99.90
10296;DHT22;5193;51.032;6.356;2023-02-15T07:35:55;0.10;99.90
10296;DHT22;5193;51.032;6.356;2023-02-15T07:38:24;0.20;99.90
10296;DHT22;5193;51.032;6.356;2023-02-15T07:40:50;0.20;99.90
10296;DHT22;5193;51.032;6.356;2023-02-15T07:43:16;0.30;99.90
10296;DHT22;5193;51.032;6.356;2023-02-15T07:45:42;0.30;99.90
10296;DHT22;5193;51.032;6.356;2023-02-15T07:48:07;0.40;99.90
10296;DHT22;5193;51.032;6.356;2023-02-15T07:50:33;0.50;99.90
10296;DHT22;5193;51.032;6.356;2023-02-15T07:53:01;0.50;99.90
10296;DHT22;5193;51.032;6.356;2023-02-15T07:55:27;0.60;99.90
10296;DHT22;5193;51.032;6.356;2023-02-15T07:57:53;0.70;99.90
10296;DHT22;5193;51.032;6.356;2023-02-15T08:00:22;0.70;99.90
10296;DHT22;5193;51.032;6.356;2023-02-15T08:02:56;0.80;99.90
10296;DHT22;5193;51.032;6.356;2023-02-15T08:05:41;0.80;99.90
10296;DHT22;5193;51.032;6.356;2023-02-15T08:08:08;0.90;99.90
10296;DHT22;5193;51.032;6.356;2023-02-15T08:10:35;0.90;99.90
10296;DHT22;5193;51.032;6.356;2023-02-15T08:13:19;1.00;99.90
10296;DHT22;5193;51.032;6.356;2023-02-15T08:15:51;1.00;99.90
10296;DHT22;5193;51.032;6.356;2023-02-15T08:18:16;1.10;99.90
10296;DHT22;5193;51.032;6.356;2023-02-15T08:20:42;1.20;99.90
10296;DHT22;5193;51.032;6.356;2023-02-15T08:23:08;1.30;99.90
10296;DHT22;5193;51.032;6.356;2023-02-15T08:25:34;1.30;99.90
10296;DHT22;5193;51.032;6.356;2023-02-15T08:27:59;1.40;99.90
10296;DHT22;5193;51.032;6.356;2023-02-15T08:30:25;1.50;99.90
10296;DHT22;5193;51.032;6.356;2023-02-15T08:32:50;1.50;99.90
10296;DHT22;5193;51.032;6.356;2023-02-15T08:35:16;1.60;99.90
10296;DHT22;5193;51.032;6.356;2023-02-15T08:37:42;1.70;99.90
10296;DHT22;5193;51.032;6.356;2023-02-15T08:40:08;1.80;99.90
10296;DHT22;5193;51.032;6.356;2023-02-15T08:42:34;1.90;99.90
10296;DHT22;5193;51.032;6.356;2023-02-15T08:44:59;2.00;99.90
10296;DHT22;5193;51.032;6.356;2023-02-15T08:47:25;2.00;99.90
10296;DHT22;5193;51.032;6.356;2023-02-15T08:49:50;2.10;99.90
10296;DHT22;5193;51.032;6.356;2023-02-15T08:52:16;2.20;99.90
10296;DHT22;5193;51.032;6.356;2023-02-15T08:54:42;2.30;99.90
10296;DHT22;5193;51.032;6.356;2023-02-15T08:57:08;2.40;99.90
10296;DHT22;5193;51.032;6.356;2023-02-15T08:59:35;2.50;99.90
10296;DHT22;5193;51.032;6.356;2023-02-15T09:02:01;2.60;99.90
10296;DHT22;5193;51.032;6.356;2023-02-15T09:04:26;2.70;99.90
10296;DHT22;5193;51.032;6.356;2023-02-15T09:06:52;2.80;99.90
10296;DHT22;5193;51.032;6.356;2023-02-15T09:09:19;2.90;99.90
10296;DHT22;5193;51.032;6.356;2023-02-15T09:11:46;2.90;99.90
10296;DHT22;5193;51.032;6.356;2023-02-15T09:14:18;3.00;99.90
10296;DHT22;5193;51.032;6.356;2023-02-15T09:16:46;3.00;99.90
10296;DHT22;5193;51.032;6.356;2023-02-15T09:19:17;3.10;99.90
10296;DHT22;5193;51.032;6.356;2023-02-15T09:21:45;3.20;99.90
10296;DHT22;5193;51.032;6.356;2023-02-15T09:24:14;3.30;99.90
10296;DHT22;5193;51.032;6.356;2023-02-15T09:26:42;3.40;99.90
10296;DHT22;5193;51.032;6.356;2023-02-15T09:29:09;3.40;99.90
10296;DHT22;5193;51.032;6.356;2023-02-15T09:31:42;3.50;99.90
10296;DHT22;5193;51.032;6.356;2023-02-15T09:34:10;3.60;99.90
10296;DHT22;5193;51.032;6.356;2023-02-15T09:36:38;3.70;99.90
10296;DHT22;5193;51.032;6.356;2023-02-15T09:39:11;3.90;99.90
10296;DHT22;5193;51.032;6.356;2023-02-15T09:55:38;4.50;99.90
10296;DHT22;5193;51.032;6.356;2023-02-15T09:58:24;4.60;99.90
10296;DHT22;5193;51.032;6.356;2023-02-15T10:01:04;4.70;99.90
10296;DHT22;5193;51.032;6.356;2023-02-15T10:03:38;4.80;99.90
10296;DHT22;5193;51.032;6.356;2023-02-15T10:07:39;5.00;99.90
10296;DHT22;5193;51.032;6.356;2023-02-15T10:10:08;5.10;99.90
10296;DHT22;5193;51.032;6.356;2023-02-15T10:20:57;5.60;99.90
10296;DHT22;5193;51.032;6.356;2023-02-15T10:23:41;5.70;99.90
10296;DHT22;5193;51.032;6.356;2023-02-15T10:26:19;5.80;99.90
10296;DHT22;5193;51.032;6.356;2023-02-15T10:28:52;5.90;99.90
10296;DHT22;5193;51.032;6.356;2023-02-15T10:32:37;5.90;99.90
10296;DHT22;5193;51.032;6.356;2023-02-15T10:34:50;6.10;99.90
10296;DHT22;5193;51.032;6.356;2023-02-15T17:49:25;8.80;99.90
10296;DHT22;5193;51.032;6.356;2023-02-15T17:51:53;8.80;99.90
10296;DHT22;5193;51.032;6.356;2023-02-15T17:54:19;8.70;99.90
10296;DHT22;5193;51.032;6.356;2023-02-15T17:57:10;8.60;99.90
10296;DHT22;5193;51.032;6.356;2023-02-15T17:59:37;8.50;99.90
10296;DHT22;5193;51.032;6.356;2023-02-15T18:02:21;8.40;99.90
10296;DHT22;5193;51.032;6.356;2023-02-15T18:05:14;8.40;99.90
10296;DHT22;5193;51.032;6.356;2023-02-15T18:07:58;8.40;99.90
10296;DHT22;5193;51.032;6.356;2023-02-15T18:10:42;8.20;99.90
10296;DHT22;5193;51.032;6.356;2023-02-15T18:13:26;8.20;99.90
10296;DHT22;5193;51.032;6.356;2023-02-15T18:15:52;8.10;99.90
10296;DHT22;5193;51.032;6.356;2023-02-15T18:18:18;8.00;99.90
10296;DHT22;5193;51.032;6.356;2023-02-15T18:20:43;7.90;99.90
10296;DHT22;5193;51.032;6.356;2023-02-15T18:23:13;7.90;99.90
10296;DHT22;5193;51.032;6.356;2023-02-15T18:25:39;7.80;99.90
10296;DHT22;5193;51.032;6.356;2023-02-15T18:28:04;7.70;99.90
10296;DHT22;5193;51.032;6.356;2023-02-15T18:30:31;7.70;99.90
10296;DHT22;5193;51.032;6.356;2023-02-15T18:32:58;7.60;99.90
10296;DHT22;5193;51.032;6.356;2023-02-15T18:35:28;7.50;99.90
10296;DHT22;5193;51.032;6.356;2023-02-15T18:37:55;7.50;99.90
10296;DHT22;5193;51.032;6.356;2023-02-15T18:40:25;7.40;99.90
10296;DHT22;5193;51.032;6.356;2023-02-15T18:42:51;7.40;99.90
10296;DHT22;5193;51.032;6.356;2023-02-15T18:45:19;7.30;99.90
10296;DHT22;5193;51.032;6.356;2023-02-15T18:47:46;7.20;99.90
10296;DHT22;5193;51.032;6.356;2023-02-15T18:50:13;7.10;99.90
10296;DHT22;5193;51.032;6.356;2023-02-15T18:52:40;7.10;99.90
10296;DHT22;5193;51.032;6.356;2023-02-15T18:55:25;7.10;99.90
10296;DHT22;5193;51.032;6.356;2023-02-15T18:57:54;7.00;99.90
10296;DHT22;5193;51.032;6.356;2023-02-15T19:00:23;6.90;99.90
10296;DHT22;5193;51.032;6.356;2023-02-15T19:02:53;6.80;99.90
10296;DHT22;5193;51.032;6.356;2023-02-15T19:05:19;6.80;99.90
10296;DHT22;5193;51.032;6.356;2023-02-15T19:07:46;6.70;99.90
10296;DHT22;5193;51.032;6.356;2023-02-15T19:10:18;6.70;99.90
10296;DHT22;5193;51.032;6.356;2023-02-15T19:12:44;6.60;99.90
10296;DHT22;5193;51.032;6.356;2023-02-15T19:15:15;6.50;99.90
10296;DHT22;5193;51.032;6.356;2023-02-15T19:17:41;6.50;99.90
10296;DHT22;5193;51.032;6.356;2023-02-15T19:20:14;6.40;99.90
10296;DHT22;5193;51.032;6.356;2023-02-15T19:22:40;6.40;99.90
10296;DHT22;5193;51.032;6.356;2023-02-15T19:25:06;6.30;99.90
10296;DHT22;5193;51.032;6.356;2023-02-15T19:27:33;6.30;99.90
10296;DHT22;5193;51.032;6.356;2023-02-15T19:30:01;6.20;99.90
10296;DHT22;5193;51.032;6.356;2023-02-15T19:32:28;6.10;99.90
10296;DHT22;5193;51.032;6.356;2023-02-15T19:34:55;6.10;99.90
10296;DHT22;5193;51.032;6.356;2023-02-15T19:37:29;6.00;99.90
10296;DHT22;5193;51.032;6.356;2023-02-15T19:39:56;5.90;99.90
10296;DHT22;5193;51.032;6.356;2023-02-15T19:42:22;5.90;99.90
10296;DHT22;5193;51.032;6.356;2023-02-15T19:44:49;5.80;99.90
10296;DHT22;5193;51.032;6.356;2023-02-15T19:47:15;5.80;99.90
10296;DHT22;5193;51.032;6.356;2023-02-15T19:49:41;5.70;99.90
10296;DHT22;5193;51.032;6.356;2023-02-15T19:52:18;5.60;99.90
10296;DHT22;5193;51.032;6.356;2023-02-15T19:54:45;5.60;99.90
10296;DHT22;5193;51.032;6.356;2023-02-15T19:57:11;5.60;99.90
10296;DHT22;5193;51.032;6.356;2023-02-15T19:59:38;5.50;99.90
10296;DHT22;5193;51.032;6.356;2023-02-15T20:02:04;5.40;99.90
10296;DHT22;5193;51.032;6.356;2023-02-15T20:04:29;5.40;99.90
10296;DHT22;5193;51.032;6.356;2023-02-15T20:06:57;5.40;99.90
10296;DHT22;5193;51.032;6.356;2023-02-15T20:09:33;5.40;99.90
10296;DHT22;5193;51.032;6.356;2023-02-15T20:12:02;5.30;99.90
10296;DHT22;5193;51.032;6.356;2023-02-15T20:14:28;5.30;99.90
10296;DHT22;5193;51.032;6.356;2023-02-15T20:16:54;5.30;99.90
10296;DHT22;5193;51.032;6.356;2023-02-15T20:19:19;5.20;99.90
10296;DHT22;5193;51.032;6.356;2023-02-15T20:21:46;5.20;99.90
10296;DHT22;5193;51.032;6.356;2023-02-15T20:24:18;5.20;99.90
10296;DHT22;5193;51.032;6.356;2023-02-15T20:26:44;5.10;99.90
10296;DHT22;5193;51.032;6.356;2023-02-15T20:29:14;5.10;99.90
10296;DHT22;5193;51.032;6.356;2023-02-15T20:31:41;5.10;99.90
10296;DHT22;5193;51.032;6.356;2023-02-15T20:34:07;5.10;99.90
10296;DHT22;5193;51.032;6.356;2023-02-15T20:36:32;5.10;99.90
10296;DHT22;5193;51.032;6.356;2023-02-15T20:39:00;5.10;99.90
10296;DHT22;5193;51.032;6.356;2023-02-15T20:41:27;5.00;99.90
10296;DHT22;5193;51.032;6.356;2023-02-15T20:46:42;4.90;99.90
10296;DHT22;5193;51.032;6.356;2023-02-15T20:49:08;4.80;99.90
10296;DHT22;5193;51.032;6.356;2023-02-15T20:51:33;4.80;99.90
10296;DHT22;5193;51.032;6.356;2023-02-15T20:53:59;4.80;99.90
10296;DHT22;5193;51.032;6.356;2023-02-15T20:56:25;4.80;99.90
10296;DHT22;5193;51.032;6.356;2023-02-15T20:58:51;4.70;99.90
10296;DHT22;5193;51.032;6.356;2023-02-15T21:01:17;4.70;99.90
10296;DHT22;5193;51.032;6.356;2023-02-15T21:03:45;4.60;99.90
10296;DHT22;5193;51.032;6.356;2023-02-15T21:06:12;4.50;99.90
10296;DHT22;5193;51.032;6.356;2023-02-15T21:08:38;4.60;99.90
10296;DHT22;5193;51.032;6.356;2023-02-15T21:11:04;4.50;99.90
10296;DHT22;5193;51.032;6.356;2023-02-15T21:13:32;4.40;99.90
10296;DHT22;5193;51.032;6.356;2023-02-15T21:15:58;4.40;99.90
10296;DHT22;5193;51.032;6.356;2023-02-15T21:18:32;4.30;99.90
10296;DHT22;5193;51.032;6.356;2023-02-15T21:21:00;4.30;99.90
10296;DHT22;5193;51.032;6.356;2023-02-15T21:23:48;4.30;99.90
10296;DHT22;5193;51.032;6.356;2023-02-15T21:26:16;4.30;99.90
10296;DHT22;5193;51.032;6.356;2023-02-15T21:28:43;4.20;99.90
10296;DHT22;5193;51.032;6.356;2023-02-15T21:31:18;4.20;99.90
10296;DHT22;5193;51.032;6.356;2023-02-15T21:33:44;4.10;99.90
10296;DHT22;5193;51.032;6.356;2023-02-15T21:36:19;4.10;99.90
10296;DHT22;5193;51.032;6.356;2023-02-15T21:38:45;4.00;99.90
10296;DHT22;5193;51.032;6.356;2023-02-15T21:41:15;3.90;99.90
10296;DHT22;5193;51.032;6.356;2023-02-15T21:44:00;3.90;99.90
10296;DHT22;5193;51.032;6.356;2023-02-15T21:46:44;3.90;99.90
10296;DHT22;5193;51.032;6.356;2023-02-15T21:49:28;3.90;99.90
10296;DHT22;5193;51.032;6.356;2023-02-15T21:52:07;3.80;99.90
10296;DHT22;5193;51.032;6.356;2023-02-15T21:54:39;3.70;99.90
10296;DHT22;5193;51.032;6.356;2023-02-15T21:57:07;3.70;99.90
10296;DHT22;5193;51.032;6.356;2023-02-15T21:59:33;3.70;99.90
10296;DHT22;5193;51.032;6.356;2023-02-15T22:01:59;3.60;99.90
10296;DHT22;5193;51.032;6.356;2023-02-15T22:04:26;3.60;99.90
10296;DHT22;5193;51.032;6.356;2023-02-15T22:06:53;3.50;99.90
10296;DHT22;5193;51.032;6.356;2023-02-15T22:09:22;3.50;99.90
10296;DHT22;5193;51.032;6.356;2023-02-15T22:11:48;3.50;99.90
10296;DHT22;5193;51.032;6.356;2023-02-15T22:14:37;3.50;99.90
10296;DHT22;5193;51.032;6.356;2023-02-15T22:19:37;3.40;99.90
10296;DHT22;5193;51.032;6.356;2023-02-15T22:22:03;3.30;99.90
10296;DHT22;5193;51.032;6.356;2023-02-15T22:24:28;3.30;99.90
10296;DHT22;5193;51.032;6.356;2023-02-15T22:26:54;3.30;99.90
10296;DHT22;5193;51.032;6.356;2023-02-15T22:29:20;3.30;99.90
10296;DHT22;5193;51.032;6.356;2023-02-15T22:31:46;3.30;99.90
10296;DHT22;5193;51.032;6.356;2023-02-15T22:34:30;3.20;99.90
10296;DHT22;5193;51.032;6.356;2023-02-15T22:36:56;3.20;99.90
10296;DHT22;5193;51.032;6.356;2023-02-15T22:39:23;3.20;99.90
10296;DHT22;5193;51.032;6.356;2023-02-15T22:41:50;3.10;99.90
10296;DHT22;5193;51.032;6.356;2023-02-15T22:44:25;3.10;99.90
10296;DHT22;5193;51.032;6.356;2023-02-15T22:46:52;3.10;99.90
10296;DHT22;5193;51.032;6.356;2023-02-15T22:49:17;3.10;99.90
10296;DHT22;5193;51.032;6.356;2023-02-15T22:51:47;3.10;99.90
10296;DHT22;5193;51.032;6.356;2023-02-15T22:54:14;3.10;99.90
10296;DHT22;5193;51.032;6.356;2023-02-15T22:56:45;3.10;99.90
10296;DHT22;5193;51.032;6.356;2023-02-15T22:59:24;3.10;99.90
10296;DHT22;5193;51.032;6.356;2023-02-15T23:01:52;3.10;99.90
10296;DHT22;5193;51.032;6.356;2023-02-15T23:04:20;3.10;99.90
10296;DHT22;5193;51.032;6.356;2023-02-15T23:06:47;3.10;99.90
10296;DHT22;5193;51.032;6.356;2023-02-15T23:09:13;3.10;99.90
10296;DHT22;5193;51.032;6.356;2023-02-15T23:11:39;3.10;99.90
10296;DHT22;5193;51.032;6.356;2023-02-15T23:14:05;3.10;99.90
10296;DHT22;5193;51.032;6.356;2023-02-15T23:16:31;3.00;99.90
10296;DHT22;5193;51.032;6.356;2023-02-15T23:18:57;3.00;99.90
10296;DHT22;5193;51.032;6.356;2023-02-15T23:21:25;3.00;99.90
10296;DHT22;5193;51.032;6.356;2023-02-15T23:23:58;2.90;99.90
10296;DHT22;5193;51.032;6.356;2023-02-15T23:26:28;2.90;99.90
10296;DHT22;5193;51.032;6.356;2023-02-15T23:28:56;2.80;99.90
10296;DHT22;5193;51.032;6.356;2023-02-15T23:31:32;2.80;99.90
10296;DHT22;5193;51.032;6.356;2023-02-15T23:34:00;2.80;99.90
10296;DHT22;5193;51.032;6.356;2023-02-15T23:36:33;2.70;99.90
10296;DHT22;5193;51.032;6.356;2023-02-15T23:39:03;2.70;99.90
10296;DHT22;5193;51.032;6.356;2023-02-15T23:41:50;2.70;99.90
10296;DHT22;5193;51.032;6.356;2023-02-15T23:44:17;2.60;99.90
10296;DHT22;5193;51.032;6.356;2023-02-15T23:46:45;2.60;99.90
10296;DHT22;5193;51.032;6.356;2023-02-15T23:49:16;2.60;99.90
10296;DHT22;5193;51.032;6.356;2023-02-15T23:51:48;2.60;99.90
10296;DHT22;5193;51.032;6.356;2023-02-15T23:54:15;2.60;99.90
10296;DHT22;5193;51.032;6.356;2023-02-15T23:56:42;2.50;99.90
10296;DHT22;5193;51.032;6.356;2023-02-15T23:59:15;2.50;99.90
